Time;durP1;ratioP1;P1;durP2;ratioP2;P2;SDS_P1;SDS_P2;PMS_P1;PMS_P2;Temp;Humidity;BMP_temperature;BMP_pressure;BME280_temperature;BME280_humidity;BME280_pressure;Samples;Min_cycle;Max_cycle;Signal;HPM_P1;HPM_P2
2022/09/05 00:00:11;;;;;;;3.75;2.97;;;;;;;;;;5026457;28;20740;-52
2022/09/05 00:02:49;;;;;;;3.65;3.05;;;;;;;;;;5041836;28;20207;-52
2022/09/05 00:05:24;;;;;;;4.32;3.30;;;;;;;;;;5026878;28;20206;-50
2022/09/05 00:08:28;;;;;;;6.28;3.03;;;;;;;;;;5043181;28;20222;-54
2022/09/05 00:11:10;;;;;;;4.93;3.30;;;;;;;;;;5018790;28;20199;-53
2022/09/05 00:14:21;;;;;;;3.50;3.05;;;;;;;;;;5024396;28;20281;-53
2022/09/05 00:17:20;;;;;;;2.80;2.50;;;;;;;;;;5023416;28;20268;-53
2022/09/05 00:20:10;;;;;;;3.40;3.03;;;;;;;;;;5023665;28;20195;-52
2022/09/05 00:23:11;;;;;;;2.90;2.60;;;;;;;;;;5041419;28;20245;-54
2022/09/05 00:26:22;;;;;;;3.95;2.80;;;;;;;;;;5025668;28;20199;-54
2022/09/05 00:29:00;;;;;;;3.08;2.78;;;;;;;;;;5026968;28;20211;-51
2022/09/05 00:31:38;;;;;;;3.28;2.80;;;;;;;;;;5041972;28;20249;-55
2022/09/05 00:34:34;;;;;;;3.53;2.83;;;;;;;;;;5019336;28;20215;-56
2022/09/05 00:37:25;;;;;;;4.85;2.85;;;;;;;;;;5019322;28;20235;-55
2022/09/05 00:39:51;;;;;;;3.78;3.00;;;;;;;;;;5025275;28;20254;-55
2022/09/05 00:42:38;;;;;;;4.70;2.80;;;;;;;;;;5035586;28;20215;-55
2022/09/05 00:45:07;;;;;;;3.08;2.60;;;;;;;;;;5022482;28;20287;-53
2022/09/05 00:47:58;;;;;;;4.65;2.67;;;;;;;;;;5040184;28;20215;-53
2022/09/05 00:50:29;;;;;;;4.20;2.72;;;;;;;;;;5022363;28;20210;-54
2022/09/05 00:52:59;;;;;;;3.50;2.67;;;;;;;;;;5039253;28;20281;-53
2022/09/05 00:55:49;;;;;;;3.10;2.75;;;;;;;;;;5028382;28;20203;-54
2022/09/05 00:58:40;;;;;;;3.20;2.90;;;;;;;;;;5019709;28;20713;-54
2022/09/05 01:01:43;;;;;;;4.43;2.65;;;;;;;;;;5025713;28;20552;-53
2022/09/05 01:04:25;;;;;;;2.72;2.30;;;;;;;;;;5019793;28;20199;-54
2022/09/05 01:07:33;;;;;;;3.08;2.70;;;;;;;;;;5028075;28;20252;-54
2022/09/05 01:10:19;;;;;;;3.78;3.00;;;;;;;;;;5031077;28;20187;-56
2022/09/05 01:12:59;;;;;;;3.45;2.90;;;;;;;;;;5025564;28;20192;-53
2022/09/05 01:15:42;;;;;;;3.08;2.75;;;;;;;;;;5021246;28;20706;-55
2022/09/05 01:18:16;;;;;;;3.25;2.70;;;;;;;;;;5010207;28;20732;-54
2022/09/05 01:21:01;;;;;;;4.32;2.70;;;;;;;;;;5027614;28;20927;-55
2022/09/05 01:23:38;;;;;;;3.10;2.75;;;;;;;;;;5021970;28;20204;-54
2022/09/05 01:26:15;;;;;;;3.50;2.65;;;;;;;;;;5028222;28;20203;-53
2022/09/05 01:29:01;;;;;;;4.00;2.70;;;;;;;;;;5007261;28;20222;-54
2022/09/05 01:31:57;;;;;;;3.15;2.60;;;;;;;;;;5020626;28;20249;-55
2022/09/05 01:34:47;;;;;;;3.97;2.72;;;;;;;;;;5029065;28;20219;-54
2022/09/05 01:37:41;;;;;;;3.20;2.58;;;;;;;;;;5021802;28;20200;-54
2022/09/05 01:40:28;;;;;;;3.20;2.50;;;;;;;;;;5033242;28;20207;-55
2022/09/05 01:43:36;;;;;;;3.38;2.60;;;;;;;;;;5024607;28;20234;-54
2022/09/05 01:46:18;;;;;;;3.60;2.83;;;;;;;;;;5024263;28;20200;-55
2022/09/05 01:48:53;;;;;;;3.65;2.70;;;;;;;;;;5024172;28;20217;-57
2022/09/05 01:51:33;;;;;;;4.60;3.10;;;;;;;;;;5014433;28;20199;-54
2022/09/05 01:54:18;;;;;;;2.97;2.67;;;;;;;;;;5024900;28;20219;-56
2022/09/05 01:57:02;;;;;;;2.90;2.55;;;;;;;;;;5017230;28;20203;-55
2022/09/05 02:00:02;;;;;;;3.35;2.88;;;;;;;;;;5043859;28;20237;-55
2022/09/05 02:02:43;;;;;;;3.78;2.90;;;;;;;;;;5028217;28;20211;-54
2022/09/05 02:05:19;;;;;;;3.95;3.13;;;;;;;;;;5031816;28;20253;-56
2022/09/05 02:08:22;;;;;;;4.13;2.72;;;;;;;;;;5016877;28;20219;-54
2022/09/05 02:11:04;;;;;;;2.85;2.50;;;;;;;;;;5017821;28;20414;-54
2022/09/05 02:13:33;;;;;;;3.10;2.80;;;;;;;;;;5032529;28;20769;-55
2022/09/05 02:16:27;;;;;;;3.03;2.50;;;;;;;;;;5025468;28;20200;-55
2022/09/05 02:19:02;;;;;;;2.88;2.60;;;;;;;;;;5019548;28;20216;-56
2022/09/05 02:21:32;;;;;;;3.38;2.85;;;;;;;;;;5022484;28;20256;-56
2022/09/05 02:24:33;;;;;;;3.47;3.15;;;;;;;;;;5029598;28;20746;-54
2022/09/05 02:27:09;;;;;;;5.13;2.92;;;;;;;;;;5010474;28;20573;-54
2022/09/05 02:30:08;;;;;;;3.63;3.10;;;;;;;;;;5026459;28;20215;-51
2022/09/05 02:32:37;;;;;;;4.07;2.90;;;;;;;;;;5025165;28;20195;-57
2022/09/05 02:35:08;;;;;;;3.85;2.60;;;;;;;;;;5021282;28;20572;-56
2022/09/05 02:37:40;;;;;;;3.90;3.10;;;;;;;;;;5026875;28;20273;-57
2022/09/05 02:40:38;;;;;;;3.45;3.03;;;;;;;;;;5025508;28;20273;-56
2022/09/05 02:43:36;;;;;;;4.82;3.10;;;;;;;;;;5033171;28;20196;-53
2022/09/05 02:47:04;;;;;;;3.70;3.07;;;;;;;;;;5037650;28;20200;-54
2022/09/05 02:49:52;;;;;;;3.33;2.83;;;;;;;;;;5026829;28;20259;-55
2022/09/05 02:52:39;;;;;;;5.72;3.42;;;;;;;;;;5021338;28;20215;-52
2022/09/05 02:56:02;;;;;;;3.40;2.75;;;;;;;;;;5028423;28;20652;-55
2022/09/05 02:58:58;;;;;;;4.25;3.33;;;;;;;;;;5023596;28;20277;-54
2022/09/05 03:01:42;;;;;;;4.22;3.00;;;;;;;;;;5029177;28;20223;-55
2022/09/05 03:04:32;;;;;;;3.90;3.40;;;;;;;;;;5022871;28;20191;-57
2022/09/05 03:07:33;;;;;;;3.67;3.22;;;;;;;;;;5022938;28;20235;-54
2022/09/05 03:10:24;;;;;;;4.18;3.30;;;;;;;;;;5023944;28;21969;-57
2022/09/05 03:13:47;;;;;;;3.50;2.85;;;;;;;;;;5020940;28;20626;-54
2022/09/05 03:16:49;;;;;;;4.77;3.13;;;;;;;;;;5026502;28;20199;-55
2022/09/05 03:19:32;;;;;;;4.80;3.17;;;;;;;;;;5026225;28;20223;-56
2022/09/05 03:22:21;;;;;;;3.67;3.20;;;;;;;;;;5029455;28;20199;-54
2022/09/05 03:25:09;;;;;;;3.80;3.03;;;;;;;;;;5025538;28;20207;-56
2022/09/05 03:27:45;;;;;;;4.50;3.60;;;;;;;;;;5023033;28;20591;-56
2022/09/05 03:30:19;;;;;;;4.00;3.20;;;;;;;;;;5024502;28;20203;-54
2022/09/05 03:33:02;;;;;;;4.10;3.00;;;;;;;;;;5044383;28;20195;-54
2022/09/05 03:35:56;;;;;;;3.30;3.00;;;;;;;;;;5025034;28;20223;-56
2022/09/05 03:38:29;;;;;;;4.20;3.27;;;;;;;;;;5027463;28;20243;-56
2022/09/05 03:41:18;;;;;;;3.50;3.13;;;;;;;;;;5026136;28;20211;-56
2022/09/05 03:44:26;;;;;;;3.70;3.10;;;;;;;;;;5035001;28;20200;-53
2022/09/05 03:47:07;;;;;;;3.63;2.97;;;;;;;;;;5018041;28;20618;-56
2022/09/05 03:50:08;;;;;;;3.63;3.27;;;;;;;;;;5013813;28;20607;-53
2022/09/05 03:53:13;;;;;;;4.47;2.80;;;;;;;;;;5040411;28;20254;-56
2022/09/05 03:56:20;;;;;;;3.23;2.93;;;;;;;;;;5040063;28;20246;-56
2022/09/05 03:59:28;;;;;;;3.47;2.93;;;;;;;;;;5029921;28;20669;-54
2022/09/05 04:02:03;;;;;;;4.40;2.80;;;;;;;;;;5027892;28;20474;-54
2022/09/05 04:05:03;;;;;;;3.03;2.60;;;;;;;;;;5024985;28;20310;-56
2022/09/05 04:07:53;;;;;;;5.87;3.17;;;;;;;;;;5016116;28;20220;-54
2022/09/05 04:10:53;;;;;;;4.70;3.40;;;;;;;;;;5022777;28;20200;-56
2022/09/05 04:13:26;;;;;;;4.20;2.80;;;;;;;;;;5021085;28;20195;-50
2022/09/05 04:16:20;;;;;;;4.03;2.90;;;;;;;;;;5016899;28;20196;-54
2022/09/05 04:18:53;;;;;;;4.20;3.10;;;;;;;;;;5022206;28;20690;-52
2022/09/05 04:21:28;;;;;;;3.10;2.80;;;;;;;;;;5018729;28;20226;-51
2022/09/05 04:24:06;;;;;;;3.27;2.97;;;;;;;;;;5024516;28;20233;-51
2022/09/05 04:27:00;;;;;;;3.60;3.00;;;;;;;;;;5020128;28;20231;-51
2022/09/05 04:29:55;;;;;;;3.80;2.90;;;;;;;;;;5021034;28;20199;-51
2022/09/05 04:32:44;;;;;;;3.40;2.90;;;;;;;;;;5024809;28;20253;-52
2022/09/05 04:35:21;;;;;;;4.60;2.70;;;;;;;;;;5025037;28;20219;-51
2022/09/05 04:37:58;;;;;;;3.17;2.78;;;;;;;;;;5020185;28;20695;-54
2022/09/05 04:40:38;;;;;;;4.57;3.30;;;;;;;;;;5018917;28;20672;-54
2022/09/05 04:43:16;;;;;;;5.63;3.25;;;;;;;;;;5026145;28;20203;-54
2022/09/05 04:45:52;;;;;;;3.10;2.80;;;;;;;;;;5021378;28;20269;-50
2022/09/05 04:48:23;;;;;;;4.97;3.27;;;;;;;;;;5025883;28;20233;-53
2022/09/05 04:51:01;;;;;;;4.27;3.40;;;;;;;;;;5025540;28;20195;-54
2022/09/05 04:53:37;;;;;;;4.10;2.80;;;;;;;;;;5023404;28;20199;-53
2022/09/05 04:56:10;;;;;;;3.65;3.22;;;;;;;;;;5026123;28;20231;-51
2022/09/05 04:58:46;;;;;;;4.53;3.45;;;;;;;;;;5035095;28;20252;-53
2022/09/05 05:01:55;;;;;;;4.47;3.80;;;;;;;;;;5025820;28;20581;-53
2022/09/05 05:04:41;;;;;;;3.97;3.33;;;;;;;;;;5036407;28;20196;-51
2022/09/05 05:07:46;;;;;;;3.77;3.43;;;;;;;;;;5022498;28;20265;-51
2022/09/05 05:10:42;;;;;;;4.87;3.40;;;;;;;;;;5023171;28;20211;-52
2022/09/05 05:13:34;;;;;;;3.97;3.57;;;;;;;;;;5012988;28;20257;-53
2022/09/05 05:16:24;;;;;;;4.07;3.40;;;;;;;;;;5020859;28;20652;-53
2022/09/05 05:19:30;;;;;;;4.23;3.50;;;;;;;;;;5014082;28;20231;-50
2022/09/05 05:21:59;;;;;;;4.43;3.80;;;;;;;;;;5027823;28;20568;-51
2022/09/05 05:24:28;;;;;;;5.13;3.03;;;;;;;;;;5027703;28;20199;-53
2022/09/05 05:27:06;;;;;;;4.32;3.22;;;;;;;;;;5024443;28;20265;-50
2022/09/05 05:29:52;;;;;;;3.70;3.03;;;;;;;;;;5021918;28;20195;-53
2022/09/05 05:32:23;;;;;;;3.83;3.00;;;;;;;;;;5017316;28;20225;-53
2022/09/05 05:35:11;;;;;;;6.88;3.63;;;;;;;;;;5032316;28;20690;-53
2022/09/05 05:37:41;;;;;;;5.22;3.00;;;;;;;;;;5022471;28;20273;-57
2022/09/05 05:40:16;;;;;;;3.25;2.95;;;;;;;;;;5022223;28;20682;-54
2022/09/05 05:42:44;;;;;;;5.15;3.40;;;;;;;;;;5016145;28;20582;-56
2022/09/05 05:45:25;;;;;;;7.95;3.63;;;;;;;;;;5037601;28;20212;-56
2022/09/05 05:47:58;;;;;;;5.63;3.38;;;;;;;;;;5038893;28;20222;-56
2022/09/05 05:50:35;;;;;;;3.70;3.40;;;;;;;;;;5020933;28;20199;-53
2022/09/05 05:53:26;;;;;;;4.45;3.08;;;;;;;;;;5032423;28;20191;-50
2022/09/05 05:56:18;;;;;;;4.85;3.58;;;;;;;;;;5024618;28;20555;-53
2022/09/05 05:58:54;;;;;;;5.95;3.40;;;;;;;;;;5036536;28;20635;-52
2022/09/05 06:01:48;;;;;;;4.35;3.17;;;;;;;;;;5001361;28;21631;-50
2022/09/05 06:04:38;;;;;;;6.40;3.03;;;;;;;;;;5030545;28;20200;-52
2022/09/05 06:07:48;;;;;;;3.58;3.05;;;;;;;;;;5021107;28;20294;-51
2022/09/05 06:10:53;;;;;;;5.57;3.83;;;;;;;;;;5019390;28;20570;-55
2022/09/05 06:14:12;;;;;;;4.00;3.05;;;;;;;;;;5016503;28;20272;-55
2022/09/05 06:17:19;;;;;;;6.30;3.33;;;;;;;;;;5025797;28;20253;-55
2022/09/05 06:20:19;;;;;;;6.43;3.90;;;;;;;;;;5028020;28;20192;-51
2022/09/05 06:23:12;;;;;;;4.97;3.60;;;;;;;;;;5024598;28;20207;-52
2022/09/05 06:26:14;;;;;;;3.88;3.47;;;;;;;;;;5029114;28;20200;-50
2022/09/05 06:28:56;;;;;;;4.82;3.55;;;;;;;;;;5024885;28;20219;-53
2022/09/05 06:31:36;;;;;;;4.43;3.65;;;;;;;;;;5023358;28;20457;-53
2022/09/05 06:34:23;;;;;;;4.35;3.45;;;;;;;;;;5025505;28;20199;-53
2022/09/05 06:37:09;;;;;;;5.40;3.78;;;;;;;;;;5024261;28;20604;-51
2022/09/05 06:39:56;;;;;;;5.13;3.95;;;;;;;;;;5020890;28;20778;-53
2022/09/05 06:42:31;;;;;;;5.10;3.45;;;;;;;;;;5018522;28;20199;-50
2022/09/05 06:45:20;;;;;;;4.07;3.67;;;;;;;;;;5034025;28;20773;-50
2022/09/05 06:48:17;;;;;;;4.60;3.22;;;;;;;;;;4969538;28;20714;-53
2022/09/05 06:51:31;;;;;;;4.50;3.60;;;;;;;;;;5029401;28;20191;-54
2022/09/05 06:54:06;;;;;;;5.22;3.25;;;;;;;;;;5022762;28;20594;-54
2022/09/05 06:56:51;;;;;;;4.00;3.45;;;;;;;;;;5026442;28;20207;-53
2022/09/05 06:59:28;;;;;;;4.95;3.40;;;;;;;;;;5021521;28;20211;-54
2022/09/05 07:02:08;;;;;;;6.00;3.53;;;;;;;;;;5029426;28;20628;-50
2022/09/05 07:04:52;;;;;;;4.05;3.35;;;;;;;;;;5030285;28;20195;-56
2022/09/05 07:07:54;;;;;;;4.05;3.50;;;;;;;;;;5021573;28;20269;-53
2022/09/05 07:10:32;;;;;;;5.15;3.20;;;;;;;;;;5021371;28;20671;-53
2022/09/05 07:13:14;;;;;;;4.55;3.15;;;;;;;;;;5028374;28;20720;-54
2022/09/05 07:15:59;;;;;;;4.38;3.67;;;;;;;;;;5023825;28;20609;-55
2022/09/05 07:19:04;;;;;;;3.92;2.95;;;;;;;;;;5017731;28;20306;-54
2022/09/05 07:21:43;;;;;;;3.22;2.83;;;;;;;;;;5028058;28;20257;-54
2022/09/05 07:24:18;;;;;;;4.00;3.10;;;;;;;;;;5040989;28;20306;-49
2022/09/05 07:27:06;;;;;;;4.93;3.03;;;;;;;;;;5021129;28;20203;-54
2022/09/05 07:29:39;;;;;;;3.13;2.53;;;;;;;;;;5025757;28;20245;-53
2022/09/05 07:32:18;;;;;;;3.33;2.70;;;;;;;;;;5033066;28;20236;-54
2022/09/05 07:34:50;;;;;;;3.55;2.85;;;;;;;;;;5022055;28;20229;-56
2022/09/05 07:37:22;;;;;;;4.43;3.05;;;;;;;;;;5015459;28;20632;-56
2022/09/05 07:39:53;;;;;;;3.67;3.13;;;;;;;;;;5033757;28;20204;-56
2022/09/05 07:42:32;;;;;;;3.97;2.90;;;;;;;;;;5002772;28;20294;-53
2022/09/05 07:45:05;;;;;;;3.55;2.88;;;;;;;;;;5018453;28;20659;-55
2022/09/05 07:47:34;;;;;;;3.03;2.72;;;;;;;;;;5017211;28;20657;-55
2022/09/05 07:50:05;;;;;;;3.92;2.80;;;;;;;;;;5011403;28;21030;-55
2022/09/05 07:52:54;;;;;;;4.03;3.10;;;;;;;;;;5014878;28;20284;-53
2022/09/05 07:55:41;;;;;;;6.22;3.15;;;;;;;;;;5016536;28;20255;-57
2022/09/05 07:58:40;;;;;;;4.85;2.80;;;;;;;;;;5011246;28;20247;-55
2022/09/05 08:01:12;;;;;;;4.32;3.00;;;;;;;;;;5015785;28;20208;-57
2022/09/05 08:03:41;;;;;;;5.43;3.00;;;;;;;;;;5041210;28;20202;-56
2022/09/05 08:06:12;;;;;;;3.92;3.00;;;;;;;;;;5024706;28;20199;-58
2022/09/05 08:09:03;;;;;;;3.72;2.72;;;;;;;;;;5024648;28;20361;-55
2022/09/05 08:11:52;;;;;;;4.20;3.08;;;;;;;;;;5023699;28;20192;-58
2022/09/05 08:14:42;;;;;;;6.93;2.72;;;;;;;;;;5020943;28;20200;-54
2022/09/05 08:17:16;;;;;;;3.60;2.50;;;;;;;;;;5038220;28;20239;-56
2022/09/05 08:19:54;;;;;;;2.85;2.50;;;;;;;;;;5025810;28;20191;-55
2022/09/05 08:22:45;;;;;;;5.15;2.70;;;;;;;;;;5025011;28;20203;-55
2022/09/05 08:25:24;;;;;;;4.88;2.65;;;;;;;;;;5018279;28;20211;-55
2022/09/05 08:28:02;;;;;;;3.05;2.40;;;;;;;;;;5022232;28;20702;-54
2022/09/05 08:30:36;;;;;;;5.45;2.45;;;;;;;;;;5011235;28;20206;-55
2022/09/05 08:33:23;;;;;;;3.53;2.35;;;;;;;;;;5012328;28;20195;-57
2022/09/05 08:35:56;;;;;;;5.05;2.53;;;;;;;;;;5012219;28;20642;-55
2022/09/05 08:38:29;;;;;;;3.15;2.30;;;;;;;;;;5015336;28;20735;-55
2022/09/05 08:41:21;;;;;;;4.63;2.38;;;;;;;;;;5017841;28;20311;-53
2022/09/05 08:44:23;;;;;;;4.50;2.78;;;;;;;;;;5021926;28;20257;-55
2022/09/05 08:47:34;;;;;;;4.15;2.65;;;;;;;;;;5015005;28;20268;-55
2022/09/05 08:50:19;;;;;;;4.82;2.45;;;;;;;;;;5020532;28;20203;-52
2022/09/05 08:53:25;;;;;;;4.95;2.65;;;;;;;;;;5010922;28;20195;-55
2022/09/05 08:56:30;;;;;;;4.10;2.50;;;;;;;;;;5015714;28;20954;-50
2022/09/05 08:59:13;;;;;;;4.70;2.90;;;;;;;;;;5012930;28;20227;-53
2022/09/05 09:02:13;;;;;;;3.72;2.50;;;;;;;;;;5009184;28;20200;-56
2022/09/05 09:05:11;;;;;;;4.82;2.53;;;;;;;;;;5012645;28;20219;-56
2022/09/05 09:07:55;;;;;;;3.75;2.20;;;;;;;;;;5017312;28;20274;-56
2022/09/05 09:10:40;;;;;;;4.20;2.35;;;;;;;;;;5019509;28;20207;-54
2022/09/05 09:13:11;;;;;;;3.15;2.50;;;;;;;;;;5009856;28;22508;-57
2022/09/05 09:15:49;;;;;;;3.95;2.25;;;;;;;;;;5008026;28;20573;-55
2022/09/05 09:18:18;;;;;;;3.10;2.42;;;;;;;;;;5009826;28;20222;-53
2022/09/05 09:20:53;;;;;;;3.60;1.85;;;;;;;;;;5009482;28;20196;-58
2022/09/05 09:23:25;;;;;;;3.78;2.20;;;;;;;;;;5012635;28;20214;-54
2022/09/05 09:26:10;;;;;;;3.38;2.00;;;;;;;;;;5012117;28;20203;-57
2022/09/05 09:28:44;;;;;;;4.13;1.95;;;;;;;;;;5010672;28;20614;-56
2022/09/05 09:31:56;;;;;;;3.38;2.03;;;;;;;;;;5023342;28;20211;-53
2022/09/05 09:34:27;;;;;;;2.70;1.90;;;;;;;;;;5011737;28;20580;-54
2022/09/05 09:37:07;;;;;;;3.60;1.92;;;;;;;;;;5008991;28;20223;-55
2022/09/05 09:39:43;;;;;;;2.22;1.90;;;;;;;;;;5017796;28;20203;-53
2022/09/05 09:42:21;;;;;;;2.92;1.92;;;;;;;;;;5015476;28;20207;-54
2022/09/05 09:45:16;;;;;;;2.47;1.90;;;;;;;;;;5012864;28;20199;-55
2022/09/05 09:48:01;;;;;;;2.10;1.80;;;;;;;;;;5016832;28;20597;-55
2022/09/05 09:50:46;;;;;;;2.05;1.88;;;;;;;;;;5012232;28;20690;-51
2022/09/05 09:53:36;;;;;;;1.90;1.70;;;;;;;;;;5027392;28;20258;-57
2022/09/05 09:56:11;;;;;;;2.67;1.65;;;;;;;;;;5019482;28;20307;-54
2022/09/05 09:58:46;;;;;;;3.38;1.60;;;;;;;;;;5024644;28;20214;-57
2022/09/05 10:01:22;;;;;;;2.15;1.75;;;;;;;;;;5028559;28;20202;-52
2022/09/05 10:04:17;;;;;;;2.20;1.90;;;;;;;;;;5017487;28;20567;-54
2022/09/05 10:07:44;;;;;;;4.30;1.90;;;;;;;;;;5016689;28;20601;-56
2022/09/05 10:10:52;;;;;;;2.13;1.70;;;;;;;;;;5023079;28;20203;-50
2022/09/05 10:14:16;;;;;;;1.88;1.67;;;;;;;;;;5020883;28;20217;-55
2022/09/05 10:17:19;;;;;;;2.45;1.80;;;;;;;;;;5015284;28;20296;-55
2022/09/05 10:20:18;;;;;;;4.60;1.83;;;;;;;;;;5023220;28;20589;-52
2022/09/05 10:23:16;;;;;;;2.10;1.90;;;;;;;;;;5009856;28;20617;-53
2022/09/05 10:25:56;;;;;;;3.35;2.10;;;;;;;;;;5015920;28;20195;-51
2022/09/05 10:28:49;;;;;;;3.53;1.98;;;;;;;;;;5028233;28;20647;-52
2022/09/05 10:31:20;;;;;;;1.95;1.75;;;;;;;;;;5024302;28;20652;-50
2022/09/05 10:34:17;;;;;;;2.00;1.80;;;;;;;;;;5019097;28;20249;-56
2022/09/05 10:37:09;;;;;;;3.13;2.13;;;;;;;;;;5027685;28;20238;-55
2022/09/05 10:39:38;;;;;;;2.70;2.00;;;;;;;;;;5024846;28;20697;-57
2022/09/05 10:42:24;;;;;;;2.88;2.30;;;;;;;;;;5027494;28;20250;-54
2022/09/05 10:44:55;;;;;;;2.63;2.08;;;;;;;;;;5022117;28;20199;-52
2022/09/05 10:47:38;;;;;;;2.15;1.80;;;;;;;;;;5019070;28;20220;-57
2022/09/05 10:50:23;;;;;;;2.53;1.83;;;;;;;;;;5014844;28;20617;-54
2022/09/05 10:52:50;;;;;;;3.03;2.13;;;;;;;;;;5015499;28;20203;-60
2022/09/05 10:55:26;;;;;;;2.88;2.05;;;;;;;;;;5016186;28;20642;-55
2022/09/05 10:57:57;;;;;;;2.20;2.00;;;;;;;;;;5018063;28;20222;-55
2022/09/05 11:00:46;;;;;;;2.10;1.90;;;;;;;;;;5016507;28;20211;-56
2022/09/05 11:04:03;;;;;;;3.17;2.20;;;;;;;;;;5016861;28;20192;-57
2022/09/05 11:07:05;;;;;;;4.45;1.98;;;;;;;;;;5015925;28;20590;-54
2022/09/05 11:09:49;;;;;;;7.00;2.22;;;;;;;;;;5007667;28;20294;-53
2022/09/05 11:12:49;;;;;;;5.70;2.20;;;;;;;;;;5029833;28;20258;-53
2022/09/05 11:15:53;;;;;;;8.40;2.30;;;;;;;;;;5029375;28;20233;-56
2022/09/05 11:18:42;;;;;;;3.65;2.20;;;;;;;;;;5032395;28;20761;-52
2022/09/05 11:21:51;;;;;;;3.58;2.25;;;;;;;;;;5024963;28;20222;-52
2022/09/05 11:24:43;;;;;;;4.05;2.15;;;;;;;;;;5024977;28;20203;-54
2022/09/05 11:27:22;;;;;;;2.80;2.45;;;;;;;;;;5020589;28;20199;-52
2022/09/05 11:29:54;;;;;;;3.55;2.20;;;;;;;;;;5020720;28;21263;-53
2022/09/05 11:32:58;;;;;;;3.13;2.10;;;;;;;;;;5014302;28;20211;-53
2022/09/05 11:35:59;;;;;;;3.13;2.15;;;;;;;;;;5025800;28;20239;-54
2022/09/05 11:38:58;;;;;;;3.50;2.10;;;;;;;;;;5025509;28;20776;-53
2022/09/05 11:42:30;;;;;;;3.58;2.05;;;;;;;;;;5024161;28;20210;-55
2022/09/05 11:45:02;;;;;;;3.22;1.80;;;;;;;;;;5025284;28;20341;-55
2022/09/05 11:47:50;;;;;;;4.50;2.30;;;;;;;;;;5021764;28;20235;-55
2022/09/05 11:50:28;;;;;;;3.78;2.00;;;;;;;;;;5027366;28;20204;-56
2022/09/05 11:53:08;;;;;;;2.20;2.00;;;;;;;;;;5031048;28;20200;-54
2022/09/05 11:55:53;;;;;;;2.17;1.90;;;;;;;;;;5016031;28;20222;-55
2022/09/05 11:58:45;;;;;;;2.10;1.90;;;;;;;;;;5018624;28;20585;-54
2022/09/05 12:01:27;;;;;;;5.50;2.05;;;;;;;;;;5020595;28;20199;-53
2022/09/05 12:04:23;;;;;;;3.05;1.98;;;;;;;;;;5029381;28;20203;-54
2022/09/05 12:07:10;;;;;;;4.28;2.10;;;;;;;;;;5019281;28;20203;-54
2022/09/05 12:10:13;;;;;;;2.03;1.83;;;;;;;;;;5021336;28;20227;-53
2022/09/05 12:13:22;;;;;;;3.30;1.88;;;;;;;;;;5013483;28;20208;-51
2022/09/05 12:15:54;;;;;;;3.05;2.10;;;;;;;;;;5012214;28;20246;-52
2022/09/05 12:18:48;;;;;;;3.60;2.03;;;;;;;;;;5020864;28;20643;-53
2022/09/05 12:21:30;;;;;;;4.30;2.30;;;;;;;;;;5021937;28;20198;-49
2022/09/05 12:24:15;;;;;;;2.67;2.47;;;;;;;;;;5013655;28;20669;-50
2022/09/05 12:27:10;;;;;;;2.53;1.90;;;;;;;;;;5017771;28;20222;-51
2022/09/05 12:29:58;;;;;;;2.60;2.08;;;;;;;;;;5032796;28;20269;-53
2022/09/05 12:32:49;;;;;;;2.35;2.08;;;;;;;;;;5032699;28;20760;-53
2022/09/05 12:35:39;;;;;;;2.33;1.98;;;;;;;;;;5015969;28;20624;-52
2022/09/05 12:38:46;;;;;;;2.88;1.90;;;;;;;;;;5019099;28;20639;-54
2022/09/05 12:41:54;;;;;;;2.33;2.13;;;;;;;;;;5020215;28;20231;-53
2022/09/05 12:44:47;;;;;;;2.08;1.85;;;;;;;;;;5024634;28;20204;-54
2022/09/05 12:47:18;;;;;;;2.10;1.90;;;;;;;;;;5014593;28;20202;-55
2022/09/05 12:49:57;;;;;;;2.85;2.00;;;;;;;;;;5038377;28;20192;-50
2022/09/05 12:52:43;;;;;;;2.20;2.00;;;;;;;;;;5022473;28;20202;-53
2022/09/05 12:55:18;;;;;;;1.90;1.80;;;;;;;;;;5022638;28;20613;-53
2022/09/05 12:57:48;;;;;;;2.15;1.90;;;;;;;;;;5017864;28;20639;-52
2022/09/05 13:00:43;;;;;;;2.58;2.00;;;;;;;;;;5024870;28;20203;-54
2022/09/05 13:03:32;;;;;;;2.05;1.80;;;;;;;;;;5020410;28;20258;-50
2022/09/05 13:06:08;;;;;;;1.88;1.77;;;;;;;;;;5032137;28;20241;-54
2022/09/05 13:08:56;;;;;;;2.00;1.80;;;;;;;;;;5035737;28;20761;-55
2022/09/05 13:11:26;;;;;;;2.17;1.98;;;;;;;;;;5022896;28;20199;-54
2022/09/05 13:14:19;;;;;;;2.30;2.10;;;;;;;;;;5022119;28;20199;-54
2022/09/05 13:17:07;;;;;;;3.35;2.00;;;;;;;;;;5018247;28;20680;-51
2022/09/05 13:19:42;;;;;;;2.00;1.85;;;;;;;;;;5019040;28;20199;-53
2022/09/05 13:22:09;;;;;;;3.38;2.30;;;;;;;;;;5016934;28;20195;-52
2022/09/05 13:24:40;;;;;;;2.47;1.80;;;;;;;;;;5025439;28;20218;-51
2022/09/05 13:27:28;;;;;;;3.10;1.95;;;;;;;;;;5037597;28;20188;-52
2022/09/05 13:29:57;;;;;;;2.42;1.92;;;;;;;;;;5037910;28;20200;-54
2022/09/05 13:32:48;;;;;;;5.60;1.90;;;;;;;;;;5024875;28;20234;-53
2022/09/05 13:35:46;;;;;;;2.45;1.73;;;;;;;;;;5038256;28;20206;-52
2022/09/05 13:39:01;;;;;;;2.65;2.17;;;;;;;;;;5034974;28;20708;-53
2022/09/05 13:41:33;;;;;;;2.85;2.00;;;;;;;;;;5011589;28;20793;-50
2022/09/05 13:44:07;;;;;;;3.22;2.08;;;;;;;;;;4995769;28;20220;-53
2022/09/05 13:47:10;;;;;;;2.20;2.00;;;;;;;;;;5002598;28;20572;-53
2022/09/05 13:50:07;;;;;;;2.97;1.85;;;;;;;;;;5017499;28;20204;-50
2022/09/05 13:52:42;;;;;;;4.22;1.95;;;;;;;;;;5006996;28;20209;-50
2022/09/05 13:55:18;;;;;;;3.03;2.08;;;;;;;;;;5013339;28;20366;-50
2022/09/05 13:58:00;;;;;;;2.13;1.98;;;;;;;;;;5004836;28;20222;-55
2022/09/05 14:00:53;;;;;;;2.03;1.85;;;;;;;;;;5004047;28;20199;-53
2022/09/05 14:03:29;;;;;;;2.08;1.70;;;;;;;;;;5008955;28;20250;-52
2022/09/05 14:06:36;;;;;;;2.33;1.77;;;;;;;;;;5001601;28;20219;-50
2022/09/05 14:09:20;;;;;;;3.40;2.20;;;;;;;;;;5002987;28;20227;-52
2022/09/05 14:12:14;;;;;;;2.95;2.22;;;;;;;;;;5007798;28;20234;-50
2022/09/05 14:14:48;;;;;;;2.42;1.90;;;;;;;;;;5008518;28;20251;-51
2022/09/05 14:17:48;;;;;;;3.72;1.77;;;;;;;;;;4996634;28;20252;-50
2022/09/05 14:23:06;;;;;;;2.80;2.00;;;;;;;;;;5004519;28;20592;-50
2022/09/05 14:25:36;;;;;;;2.25;1.80;;;;;;;;;;4990928;28;20207;-49
2022/09/05 14:28:11;;;;;;;3.35;1.80;;;;;;;;;;5002512;28;20307;-49
2022/09/05 14:30:41;;;;;;;2.13;1.80;;;;;;;;;;5005959;28;20192;-53
2022/09/05 14:33:34;;;;;;;2.72;1.70;;;;;;;;;;5006118;28;20200;-49
2022/09/05 14:36:32;;;;;;;4.10;1.80;;;;;;;;;;4999298;28;20277;-54
2022/09/05 14:39:21;;;;;;;1.60;1.40;;;;;;;;;;5000196;28;20228;-51
2022/09/05 14:42:14;;;;;;;2.55;1.70;;;;;;;;;;4994917;28;20203;-51
2022/09/05 14:44:59;;;;;;;2.38;1.88;;;;;;;;;;4999819;28;20193;-52
2022/09/05 14:47:47;;;;;;;2.08;1.88;;;;;;;;;;5014499;28;20554;-51
2022/09/05 14:50:21;;;;;;;2.20;1.85;;;;;;;;;;4999403;28;20823;-52
2022/09/05 14:53:05;;;;;;;2.50;1.52;;;;;;;;;;5001386;28;20189;-49
2022/09/05 14:56:10;;;;;;;2.35;1.90;;;;;;;;;;5013719;28;20322;-49
2022/09/05 14:59:27;;;;;;;2.00;1.60;;;;;;;;;;5008855;28;20262;-51
2022/09/05 15:02:21;;;;;;;1.80;1.70;;;;;;;;;;5000299;28;20205;-49
2022/09/05 15:05:13;;;;;;;2.72;2.40;;;;;;;;;;5010541;28;20701;-49
2022/09/05 15:07:48;;;;;;;1.63;1.52;;;;;;;;;;5002554;28;20212;-50
2022/09/05 15:10:18;;;;;;;1.80;1.70;;;;;;;;;;5006911;28;20663;-52
2022/09/05 15:13:16;;;;;;;1.70;1.60;;;;;;;;;;5002184;28;20900;-51
2022/09/05 15:15:50;;;;;;;2.15;1.90;;;;;;;;;;5010168;28;20205;-53
2022/09/05 15:18:34;;;;;;;3.22;1.83;;;;;;;;;;4997175;28;20303;-49
2022/09/05 15:21:26;;;;;;;2.22;1.58;;;;;;;;;;5003810;28;20211;-51
2022/09/05 15:24:03;;;;;;;1.73;1.60;;;;;;;;;;5006247;28;20335;-49
2022/09/05 15:26:34;;;;;;;2.00;1.77;;;;;;;;;;4999146;28;20188;-50
2022/09/05 15:29:10;;;;;;;2.22;1.80;;;;;;;;;;5007846;28;20223;-49
2022/09/05 15:31:40;;;;;;;2.25;2.03;;;;;;;;;;5007192;28;20310;-49
2022/09/05 15:34:33;;;;;;;1.85;1.73;;;;;;;;;;5008188;28;20211;-51
2022/09/05 15:37:35;;;;;;;3.53;2.38;;;;;;;;;;5001757;28;20722;-50
2022/09/05 15:40:13;;;;;;;2.20;2.00;;;;;;;;;;5006566;28;20545;-49
2022/09/05 15:42:55;;;;;;;2.47;2.08;;;;;;;;;;5010612;28;20283;-52
2022/09/05 15:45:31;;;;;;;3.20;2.00;;;;;;;;;;5008077;28;20247;-52
2022/09/05 15:48:16;;;;;;;2.58;2.25;;;;;;;;;;5010400;28;20277;-52
2022/09/05 15:50:49;;;;;;;2.10;1.83;;;;;;;;;;5005148;28;20303;-52
2022/09/05 15:53:28;;;;;;;2.35;2.05;;;;;;;;;;5007886;28;20234;-50
2022/09/05 15:56:14;;;;;;;2.10;1.90;;;;;;;;;;5017126;28;20578;-50
2022/09/05 15:58:46;;;;;;;2.55;2.08;;;;;;;;;;5009191;28;20231;-54
2022/09/05 16:01:27;;;;;;;2.55;2.20;;;;;;;;;;5003197;28;20196;-49
2022/09/05 16:04:16;;;;;;;4.20;1.80;;;;;;;;;;5004997;28;20204;-51
2022/09/05 16:07:02;;;;;;;3.55;1.92;;;;;;;;;;4997641;28;20656;-49
2022/09/05 16:09:50;;;;;;;2.00;1.80;;;;;;;;;;5002694;28;20204;-51
2022/09/05 16:12:44;;;;;;;2.10;1.90;;;;;;;;;;5010209;28;20200;-53
2022/09/05 16:15:16;;;;;;;2.50;1.70;;;;;;;;;;4997474;28;20204;-51
2022/09/05 16:18:24;;;;;;;3.50;1.80;;;;;;;;;;5007358;28;20251;-50
2022/09/05 16:21:12;;;;;;;2.33;1.80;;;;;;;;;;5023865;28;20232;-53
2022/09/05 16:24:03;;;;;;;2.15;1.85;;;;;;;;;;5006086;28;20254;-52
2022/09/05 16:26:36;;;;;;;2.13;1.65;;;;;;;;;;5023850;28;20621;-49
2022/09/05 16:29:18;;;;;;;1.85;1.67;;;;;;;;;;5008812;28;20270;-53
2022/09/05 16:32:09;;;;;;;1.88;1.63;;;;;;;;;;5009389;28;20531;-50
2022/09/05 16:34:54;;;;;;;2.08;1.88;;;;;;;;;;5003522;28;20672;-52
2022/09/05 16:37:43;;;;;;;2.00;1.80;;;;;;;;;;5005475;28;20273;-50
2022/09/05 16:40:28;;;;;;;2.50;2.13;;;;;;;;;;5009344;28;20579;-54